createdAt,value
2023-06-17T00:00:07.056Z,0.00
2023-06-17T00:00:34.574Z,0.00
2023-06-17T00:00:55.047Z,0.00
2023-06-17T00:01:27.182Z,0.00
2023-06-17T00:02:00.626Z,0.00
2023-06-17T00:02:31.129Z,0.00
2023-06-17T00:03:04.190Z,0.00
2023-06-17T00:03:34.143Z,0.00
2023-06-17T00:03:52.084Z,0.00
2023-06-17T00:04:23.411Z,0.00
2023-06-17T00:04:40.435Z,0.00
2023-06-17T00:05:11.892Z,0.00
2023-06-17T00:05:34.418Z,0.00
2023-06-17T00:05:59.043Z,0.00
2023-06-17T00:06:31.972Z,0.00
2023-06-17T00:07:04.002Z,0.00
2023-06-17T00:07:34.558Z,0.00
2023-06-17T00:07:50.943Z,0.00
2023-06-17T00:08:23.922Z,0.00
2023-06-17T00:08:42.041Z,0.00
2023-06-17T00:09:11.208Z,0.00
2023-06-17T00:09:34.128Z,0.00
2023-06-17T00:09:59.201Z,0.00
2023-06-17T00:10:31.888Z,0.00
2023-06-17T00:11:03.121Z,0.00
2023-06-17T00:11:35.080Z,0.00
2023-06-17T00:12:06.976Z,0.00
2023-06-17T00:12:34.571Z,0.00
2023-06-17T00:12:55.128Z,0.00
2023-06-17T00:13:26.962Z,0.00
2023-06-17T00:14:00.060Z,0.00
2023-06-17T00:14:33.251Z,0.00
2023-06-17T00:15:04.478Z,0.00
2023-06-17T00:15:34.460Z,0.00
2023-06-17T00:16:07.411Z,0.00
2023-06-17T00:16:23.771Z,0.00
2023-06-17T00:16:41.482Z,0.00
2023-06-17T00:17:10.994Z,0.00
2023-06-17T00:17:34.148Z,0.00
2023-06-17T00:17:58.916Z,0.00
2023-06-17T00:18:32.256Z,0.00
2023-06-17T00:19:03.021Z,0.00
2023-06-17T00:19:35.471Z,0.00
2023-06-17T00:20:06.930Z,0.00
2023-06-17T00:20:36.075Z,0.00
2023-06-17T00:20:54.957Z,0.00
2023-06-17T00:21:26.878Z,0.00
2023-06-17T00:22:02.057Z,0.00
2023-06-17T00:22:30.948Z,0.00
2023-06-17T00:23:04.080Z,0.00
2023-06-17T00:23:34.186Z,0.00
2023-06-17T00:24:06.362Z,0.00
2023-06-17T00:24:23.984Z,0.00
2023-06-17T00:24:43.693Z,0.00
2023-06-17T00:25:11.935Z,0.00
2023-06-17T00:25:34.283Z,0.00
2023-06-17T00:25:59.058Z,0.00
2023-06-17T00:26:31.958Z,0.00
2023-06-17T00:27:02.916Z,0.00
2023-06-17T00:27:36.231Z,0.00
2023-06-17T00:28:07.114Z,0.00
2023-06-17T00:28:34.234Z,0.00
2023-06-17T00:28:54.879Z,0.00
2023-06-17T00:29:26.908Z,0.00
2023-06-17T00:30:00.091Z,0.00
2023-06-17T00:30:30.980Z,0.00
2023-06-17T00:31:03.716Z,0.00
2023-06-17T00:31:34.121Z,0.00
2023-06-17T00:32:06.555Z,0.00
2023-06-17T00:32:24.853Z,0.00
2023-06-17T00:32:42.409Z,0.00
2023-06-17T00:33:11.033Z,0.00
2023-06-17T00:33:34.152Z,0.00
2023-06-17T00:33:58.918Z,0.00
2023-06-17T00:34:32.007Z,0.00
2023-06-17T00:35:03.401Z,0.00
2023-06-17T00:35:35.137Z,0.00
2023-06-17T00:36:07.022Z,0.00
2023-06-17T00:36:34.263Z,0.00
2023-06-17T00:36:55.643Z,0.00
2023-06-17T00:37:26.861Z,0.00
2023-06-17T00:38:00.246Z,0.00
2023-06-17T00:38:31.013Z,0.00
2023-06-17T00:39:03.983Z,0.00
2023-06-17T00:39:34.140Z,0.00
2023-06-17T00:40:06.313Z,0.00
2023-06-17T00:40:29.118Z,0.00
2023-06-17T00:40:42.180Z,0.00
2023-06-17T00:41:11.465Z,0.00
2023-06-17T00:41:34.397Z,0.00
2023-06-17T00:41:59.062Z,0.00
2023-06-17T00:42:31.906Z,0.00
2023-06-17T00:43:03.013Z,0.00
2023-06-17T00:43:36.232Z,0.00
2023-06-17T00:44:06.883Z,0.00
2023-06-17T00:44:34.291Z,0.00
2023-06-17T00:44:54.888Z,0.00
2023-06-17T00:45:26.914Z,0.00
2023-06-17T00:46:00.306Z,0.00
2023-06-17T00:46:31.019Z,0.00
2023-06-17T00:47:03.813Z,0.00
2023-06-17T00:47:34.114Z,0.00
2023-06-17T00:47:50.707Z,0.00
2023-06-17T00:48:23.121Z,0.00
2023-06-17T00:48:41.305Z,0.00
2023-06-17T00:49:11.905Z,0.00
2023-06-17T00:49:34.363Z,0.00
2023-06-17T00:49:59.030Z,0.00
2023-06-17T00:50:31.021Z,0.00
2023-06-17T00:51:03.316Z,0.00
2023-06-17T00:51:34.174Z,0.00
2023-06-17T00:52:03.632Z,0.00
2023-06-17T00:52:39.510Z,0.00
2023-06-17T00:52:54.945Z,0.00
2023-06-17T00:53:27.787Z,0.00
2023-06-17T00:53:58.971Z,0.00
2023-06-17T00:54:33.617Z,0.00
2023-06-17T00:55:03.465Z,0.00
2023-06-17T00:55:36.806Z,0.00
2023-06-17T00:56:07.350Z,0.00
2023-06-17T00:56:34.340Z,0.00
2023-06-17T00:56:55.186Z,0.00
2023-06-17T00:57:27.025Z,0.00
2023-06-17T00:58:01.158Z,0.00
2023-06-17T00:58:30.886Z,0.00
2023-06-17T00:59:03.849Z,0.00
2023-06-17T00:59:34.126Z,0.00
2023-06-17T00:59:50.708Z,0.00
2023-06-17T01:00:23.340Z,0.00
2023-06-17T01:00:40.122Z,0.00
2023-06-17T01:01:11.782Z,0.00
2023-06-17T01:01:34.202Z,0.00
2023-06-17T01:02:12.363Z,0.00
2023-06-17T01:02:15.792Z,0.00
2023-06-17T01:02:34.207Z,0.00
2023-06-17T01:03:02.947Z,0.00
2023-06-17T01:03:34.172Z,0.00
2023-06-17T01:04:06.959Z,0.00
2023-06-17T01:04:34.166Z,0.00
2023-06-17T01:04:55.877Z,0.00
2023-06-17T01:05:27.800Z,0.00
2023-06-17T01:05:58.894Z,0.00
2023-06-17T01:06:31.801Z,0.00
2023-06-17T01:07:09.971Z,0.00
2023-06-17T01:07:18.920Z,0.00
2023-06-17T01:07:50.948Z,0.00
2023-06-17T01:08:22.841Z,0.00
2023-06-17T01:08:40.971Z,0.00
2023-06-17T01:09:10.862Z,0.00
2023-06-17T01:09:34.140Z,0.00
2023-06-17T01:10:00.290Z,0.00
2023-06-17T01:10:30.852Z,0.00
2023-06-17T01:11:03.896Z,0.00
2023-06-17T01:11:34.262Z,0.00
2023-06-17T01:11:50.713Z,0.00
2023-06-17T01:12:22.868Z,0.00
2023-06-17T01:12:40.161Z,0.00
2023-06-17T01:13:11.764Z,0.00
2023-06-17T01:13:34.819Z,0.00
2023-06-17T01:13:58.874Z,0.00
2023-06-17T01:14:30.899Z,0.00
2023-06-17T01:15:03.330Z,0.00
2023-06-17T01:15:34.319Z,0.00
2023-06-17T01:15:51.904Z,0.00
2023-06-17T01:16:23.831Z,0.00
2023-06-17T01:16:41.114Z,0.00
2023-06-17T01:17:10.882Z,0.00
2023-06-17T01:17:34.226Z,0.00
2023-06-17T01:17:58.900Z,0.00
2023-06-17T01:18:32.686Z,0.00
2023-06-17T01:19:02.834Z,0.00
2023-06-17T01:19:35.238Z,0.00
2023-06-17T01:20:06.820Z,0.00
2023-06-17T01:20:34.170Z,0.00
2023-06-17T01:20:55.172Z,0.00
2023-06-17T01:21:26.931Z,0.00
2023-06-17T01:22:00.140Z,0.00
2023-06-17T01:22:31.004Z,0.00
2023-06-17T01:23:04.256Z,0.00
2023-06-17T01:23:34.120Z,0.00
2023-06-17T01:24:06.447Z,0.00
2023-06-17T01:24:35.351Z,0.00
2023-06-17T01:24:54.857Z,0.00
2023-06-17T01:25:26.840Z,0.00
2023-06-17T01:25:58.867Z,0.00
2023-06-17T01:26:34.320Z,0.00
2023-06-17T01:27:02.868Z,0.00
2023-06-17T01:27:34.307Z,0.00
2023-06-17T01:27:50.628Z,0.00
2023-06-17T01:28:22.819Z,0.00
2023-06-17T01:28:40.367Z,0.00
2023-06-17T01:29:11.966Z,0.00
2023-06-17T01:29:34.128Z,0.00
2023-06-17T01:29:58.882Z,0.00
2023-06-17T01:30:30.851Z,0.00
2023-06-17T01:31:02.871Z,0.00
2023-06-17T01:31:34.121Z,0.00
2023-06-17T01:31:50.606Z,0.00
2023-06-17T01:32:23.837Z,0.00
2023-06-17T01:32:43.616Z,0.00
2023-06-17T01:33:10.867Z,0.00
2023-06-17T01:33:34.269Z,0.00
2023-06-17T01:33:59.127Z,0.00
2023-06-17T01:34:31.763Z,0.00
2023-06-17T01:35:02.822Z,0.00
2023-06-17T01:35:35.022Z,0.00
2023-06-17T01:36:06.850Z,0.00
2023-06-17T01:36:34.154Z,0.00
2023-06-17T01:36:54.800Z,0.00
2023-06-17T01:37:26.850Z,0.00
2023-06-17T01:37:59.775Z,0.00
2023-06-17T01:38:30.845Z,0.00
2023-06-17T01:39:03.812Z,0.00
2023-06-17T01:39:34.104Z,0.00
2023-06-17T01:40:06.395Z,0.00
2023-06-17T01:40:23.969Z,0.00
2023-06-17T01:40:40.929Z,0.00
2023-06-17T01:41:10.830Z,0.00
2023-06-17T01:41:34.202Z,0.00
2023-06-17T01:42:00.577Z,0.00
2023-06-17T01:42:32.214Z,0.00
2023-06-17T01:43:03.849Z,0.00
2023-06-17T01:43:35.045Z,0.00
2023-06-17T01:44:06.841Z,0.00
2023-06-17T01:44:34.129Z,0.00
2023-06-17T01:44:54.814Z,0.00
2023-06-17T01:45:26.850Z,0.00
2023-06-17T01:45:59.736Z,0.00
2023-06-17T01:46:30.844Z,0.00
2023-06-17T01:47:03.753Z,0.00
2023-06-17T01:47:34.144Z,0.00
2023-06-17T01:47:50.822Z,0.00
2023-06-17T01:48:22.871Z,0.00
2023-06-17T01:48:40.033Z,0.00
2023-06-17T01:49:11.827Z,0.00
2023-06-17T01:49:34.120Z,0.00
2023-06-17T01:49:58.849Z,0.00
2023-06-17T01:50:30.805Z,0.00
2023-06-17T01:51:02.806Z,0.00
2023-06-17T01:51:34.114Z,0.00
2023-06-17T01:51:50.616Z,0.00
2023-06-17T01:52:24.718Z,0.00
2023-06-17T01:52:42.013Z,0.00
2023-06-17T01:53:11.806Z,0.00
2023-06-17T01:53:34.120Z,0.00
2023-06-17T01:53:58.806Z,0.00
2023-06-17T01:54:31.845Z,0.00
2023-06-17T01:55:02.843Z,0.00
2023-06-17T01:55:35.032Z,0.00
2023-06-17T01:56:06.811Z,0.00
2023-06-17T01:56:34.131Z,0.00
2023-06-17T01:56:54.832Z,0.00
2023-06-17T01:57:28.801Z,0.00
2023-06-17T01:58:00.751Z,0.00
2023-06-17T01:58:30.832Z,0.00
2023-06-17T01:59:03.721Z,0.00
2023-06-17T01:59:34.467Z,0.00
2023-06-17T02:00:07.738Z,0.00
2023-06-17T02:00:34.813Z,0.00
2023-06-17T02:00:54.813Z,0.00
2023-06-17T02:01:26.800Z,0.00
2023-06-17T02:01:58.836Z,0.00
2023-06-17T02:02:30.819Z,0.00
2023-06-17T02:03:02.965Z,0.00
2023-06-17T02:03:34.192Z,0.00
2023-06-17T02:03:50.690Z,0.00
2023-06-17T02:04:23.842Z,0.00
2023-06-17T02:04:41.696Z,0.00
2023-06-17T02:05:10.899Z,0.00
2023-06-17T02:05:34.126Z,0.00
2023-06-17T02:05:59.624Z,0.00
2023-06-17T02:06:31.724Z,0.00
2023-06-17T02:07:02.831Z,0.00
2023-06-17T02:07:38.409Z,0.00
2023-06-17T02:08:06.767Z,0.00
2023-06-17T02:08:36.110Z,0.00
2023-06-17T02:08:54.877Z,0.00
2023-06-17T02:09:26.872Z,0.00
2023-06-17T02:09:59.814Z,0.00
2023-06-17T02:10:30.901Z,0.00
2023-06-17T02:11:03.827Z,0.00
2023-06-17T02:11:34.117Z,0.00
2023-06-17T02:11:50.594Z,0.00
2023-06-17T02:12:22.798Z,0.00
2023-06-17T02:12:41.196Z,0.00
2023-06-17T02:13:11.761Z,0.00
2023-06-17T02:13:34.091Z,0.00
2023-06-17T02:13:58.820Z,0.00
2023-06-17T02:14:31.193Z,0.00
2023-06-17T02:15:02.956Z,0.00
2023-06-17T02:15:34.590Z,0.00
2023-06-17T02:16:06.865Z,0.00
2023-06-17T02:16:34.135Z,0.00
2023-06-17T02:16:54.813Z,0.00
2023-06-17T02:17:27.588Z,0.00
2023-06-17T02:17:58.878Z,0.00
2023-06-17T02:18:33.082Z,0.00
2023-06-17T02:19:02.824Z,0.00
2023-06-17T02:19:35.237Z,0.00
2023-06-17T02:20:08.604Z,0.00
2023-06-17T02:20:35.970Z,0.00
2023-06-17T02:20:54.784Z,0.00
2023-06-17T02:21:26.862Z,0.00
2023-06-17T02:21:59.673Z,0.00
2023-06-17T02:22:30.831Z,0.00
2023-06-17T02:23:04.493Z,0.00
2023-06-17T02:23:34.151Z,0.00
2023-06-17T02:23:51.023Z,0.00
2023-06-17T02:24:22.860Z,0.00
2023-06-17T02:24:40.340Z,0.00
2023-06-17T02:25:12.616Z,0.00
2023-06-17T02:25:34.139Z,0.00
2023-06-17T02:25:58.802Z,0.00
2023-06-17T02:26:30.799Z,0.00
2023-06-17T02:27:02.769Z,0.00
2023-06-17T02:27:34.109Z,0.00
2023-06-17T02:28:06.786Z,0.00
2023-06-17T02:28:34.476Z,0.00
2023-06-17T02:28:55.104Z,0.00
2023-06-17T02:29:27.962Z,0.00
2023-06-17T02:29:58.839Z,0.00
2023-06-17T02:30:32.722Z,0.00
2023-06-17T02:31:02.823Z,0.00
2023-06-17T02:31:35.060Z,0.00
2023-06-17T02:32:09.787Z,0.00
2023-06-17T02:32:34.183Z,0.00
2023-06-17T02:32:54.844Z,0.00
2023-06-17T02:33:26.756Z,0.00
2023-06-17T02:34:00.727Z,0.00
2023-06-17T02:34:30.778Z,0.00
2023-06-17T02:35:03.727Z,0.00
2023-06-17T02:35:34.197Z,0.00
2023-06-17T02:35:50.734Z,0.00
2023-06-17T02:36:23.913Z,0.00
2023-06-17T02:36:41.084Z,0.00
2023-06-17T02:37:10.793Z,0.00
2023-06-17T02:37:34.107Z,0.00
2023-06-17T02:37:58.886Z,0.00
2023-06-17T02:38:31.775Z,0.00
2023-06-17T02:39:02.762Z,0.00
2023-06-17T02:39:35.134Z,0.00
2023-06-17T02:40:06.732Z,0.00
2023-06-17T02:40:34.327Z,0.00
2023-06-17T02:40:55.660Z,0.00
2023-06-17T02:41:26.780Z,0.00
2023-06-17T02:41:59.544Z,0.00
2023-06-17T02:42:30.792Z,0.00
2023-06-17T02:43:03.656Z,0.00
2023-06-17T02:43:34.164Z,0.00
2023-06-17T02:43:50.653Z,0.00
2023-06-17T02:44:22.747Z,0.00
2023-06-17T02:44:39.960Z,0.00
2023-06-17T02:45:11.585Z,0.00
2023-06-17T02:45:35.043Z,0.00
2023-06-17T02:45:58.933Z,0.00
2023-06-17T02:46:30.773Z,0.00
2023-06-17T02:47:03.456Z,0.00
2023-06-17T02:47:34.103Z,0.00
2023-06-17T02:47:50.658Z,0.00
2023-06-17T02:48:23.805Z,0.00
2023-06-17T02:48:41.257Z,0.00
2023-06-17T02:49:10.782Z,0.00
2023-06-17T02:49:34.146Z,0.00
2023-06-17T02:49:59.818Z,0.00
2023-06-17T02:50:31.748Z,0.00
2023-06-17T02:51:02.749Z,0.00
2023-06-17T02:51:35.012Z,0.00
2023-06-17T02:52:06.768Z,0.00
2023-06-17T02:52:34.305Z,0.00
2023-06-17T02:52:54.756Z,0.00
2023-06-17T02:53:26.770Z,0.00
2023-06-17T02:53:59.527Z,0.00
2023-06-17T02:54:30.771Z,0.00
2023-06-17T02:55:04.748Z,0.00
2023-06-17T02:55:34.143Z,0.00
2023-06-17T02:55:50.648Z,0.00
2023-06-17T02:56:22.766Z,0.00
2023-06-17T02:56:40.185Z,0.00
2023-06-17T02:57:11.642Z,0.00
2023-06-17T02:57:34.123Z,0.00
2023-06-17T02:57:59.888Z,0.00
2023-06-17T02:58:30.755Z,0.00
2023-06-17T02:59:02.874Z,0.00
2023-06-17T02:59:34.133Z,0.00
2023-06-17T02:59:50.602Z,0.00
2023-06-17T03:00:24.298Z,0.00
2023-06-17T03:00:41.897Z,0.00
2023-06-17T03:01:10.838Z,0.00
2023-06-17T03:01:34.146Z,0.00
2023-06-17T03:01:58.877Z,0.00
2023-06-17T03:02:30.950Z,0.00
2023-06-17T03:03:03.756Z,0.00
2023-06-17T03:03:34.235Z,0.00
2023-06-17T03:03:50.611Z,0.00
2023-06-17T03:04:22.732Z,0.00
2023-06-17T03:04:39.942Z,0.00
2023-06-17T03:05:11.688Z,0.00
2023-06-17T03:05:34.146Z,0.00
2023-06-17T03:05:58.803Z,0.00
2023-06-17T03:06:30.716Z,0.00
2023-06-17T03:07:02.783Z,0.00
2023-06-17T03:07:35.930Z,0.00
2023-06-17T03:07:50.622Z,0.00
2023-06-17T03:08:23.765Z,0.00
2023-06-17T03:08:41.029Z,0.00
2023-06-17T03:09:10.756Z,0.00
2023-06-17T03:09:34.135Z,0.00
2023-06-17T03:09:58.750Z,0.00
2023-06-17T03:10:31.616Z,0.00
2023-06-17T03:11:02.737Z,0.00
2023-06-17T03:11:35.034Z,0.00
2023-06-17T03:12:06.725Z,0.36
2023-06-17T03:12:34.100Z,0.00
2023-06-17T03:12:54.695Z,0.00
2023-06-17T03:13:27.082Z,0.00
2023-06-17T03:13:59.626Z,0.00
2023-06-17T03:14:30.727Z,0.00
2023-06-17T03:15:03.686Z,0.85
2023-06-17T03:15:34.620Z,0.36
2023-06-17T03:16:07.640Z,0.36
2023-06-17T03:16:34.750Z,0.36
2023-06-17T03:16:55.817Z,0.36
2023-06-17T03:17:27.734Z,0.36
2023-06-17T03:17:58.907Z,0.36
2023-06-17T03:18:30.724Z,0.85
2023-06-17T03:19:02.825Z,1.22
2023-06-17T03:19:34.127Z,1.22
2023-06-17T03:19:50.671Z,0.85
2023-06-17T03:20:23.993Z,2.08
2023-06-17T03:20:40.967Z,1.22
2023-06-17T03:21:10.806Z,1.71
2023-06-17T03:21:34.462Z,2.08
2023-06-17T03:21:58.849Z,1.71
2023-06-17T03:22:31.734Z,2.08
2023-06-17T03:23:03.669Z,1.71
2023-06-17T03:23:34.198Z,2.94
2023-06-17T03:23:50.717Z,2.94
2023-06-17T03:24:22.906Z,1.71
2023-06-17T03:24:41.128Z,2.57
2023-06-17T03:25:10.794Z,2.57
2023-06-17T03:25:34.185Z,2.57
2023-06-17T03:25:58.972Z,3.43
2023-06-17T03:26:30.901Z,2.94
2023-06-17T03:27:03.889Z,3.43
2023-06-17T03:27:34.676Z,3.79
2023-06-17T03:28:08.640Z,3.79
2023-06-17T03:28:34.149Z,4.77
2023-06-17T03:28:54.766Z,4.28
2023-06-17T03:29:26.887Z,3.79
2023-06-17T03:29:58.752Z,4.28
2023-06-17T03:30:31.833Z,4.77
2023-06-17T03:31:02.815Z,5.14
2023-06-17T03:31:34.134Z,5.63
2023-06-17T03:31:51.643Z,5.14
2023-06-17T03:32:23.799Z,5.63
2023-06-17T03:32:41.864Z,5.63
2023-06-17T03:33:10.788Z,5.99
2023-06-17T03:33:34.330Z,5.99
2023-06-17T03:33:58.797Z,6.85
2023-06-17T03:34:32.793Z,6.85
2023-06-17T03:35:02.773Z,7.34
2023-06-17T03:35:35.035Z,7.70
2023-06-17T03:36:06.797Z,7.70
2023-06-17T03:36:34.118Z,8.19
2023-06-17T03:36:54.790Z,7.70
2023-06-17T03:37:26.720Z,8.19
2023-06-17T03:37:59.605Z,8.56
2023-06-17T03:38:30.783Z,8.19
2023-06-17T03:39:03.737Z,8.56
2023-06-17T03:39:35.998Z,8.19
2023-06-17T03:39:50.687Z,8.19
2023-06-17T03:40:23.097Z,9.05
2023-06-17T03:40:40.039Z,9.54
2023-06-17T03:41:11.663Z,9.54
2023-06-17T03:41:34.188Z,9.91
2023-06-17T03:41:58.833Z,10.39
2023-06-17T03:42:31.005Z,10.77
2023-06-17T03:43:02.738Z,10.39
2023-06-17T03:43:34.682Z,10.77
2023-06-17T03:44:06.805Z,11.62
2023-06-17T03:44:34.151Z,10.77
2023-06-17T03:44:54.777Z,11.62
2023-06-17T03:45:33.590Z,12.11
2023-06-17T03:46:11.759Z,12.11
2023-06-17T03:46:14.793Z,12.48
2023-06-17T03:46:35.180Z,12.48
2023-06-17T03:47:02.756Z,13.33
2023-06-17T03:47:34.223Z,13.82
2023-06-17T03:47:52.900Z,13.82
2023-06-17T03:48:23.723Z,13.82
2023-06-17T03:48:40.065Z,13.82
2023-06-17T03:49:10.774Z,14.31
2023-06-17T03:49:34.113Z,14.31
2023-06-17T03:50:01.025Z,14.68
2023-06-17T03:50:30.757Z,15.17
2023-06-17T03:51:03.640Z,15.17
2023-06-17T03:51:34.169Z,15.53
2023-06-17T03:51:50.673Z,15.53
2023-06-17T03:52:22.812Z,16.02
2023-06-17T03:52:40.933Z,16.88
2023-06-17T03:53:11.880Z,16.88
2023-06-17T03:53:34.220Z,16.39
2023-06-17T03:53:59.080Z,16.39
2023-06-17T03:54:30.772Z,18.60
2023-06-17T03:55:04.736Z,18.11
2023-06-17T03:55:34.639Z,17.73
2023-06-17T03:56:06.760Z,18.11
2023-06-17T03:56:34.153Z,19.45
2023-06-17T03:56:54.713Z,19.45
2023-06-17T03:57:27.635Z,19.45
2023-06-17T03:57:58.727Z,19.45
2023-06-17T03:58:31.716Z,19.94
2023-06-17T03:59:02.705Z,20.31
2023-06-17T03:59:35.564Z,20.80
2023-06-17T04:00:06.926Z,21.65
2023-06-17T04:00:34.154Z,21.65
2023-06-17T04:00:54.703Z,21.16
2023-06-17T04:01:27.034Z,22.02
2023-06-17T04:02:00.677Z,22.02
2023-06-17T04:02:30.872Z,22.51
2023-06-17T04:03:03.756Z,23.36
2023-06-17T04:03:34.273Z,22.87
2023-06-17T04:03:50.763Z,22.87
2023-06-17T04:04:29.062Z,22.87
2023-06-17T04:04:34.397Z,23.36
2023-06-17T04:04:55.467Z,24.22
2023-06-17T04:05:26.685Z,24.22
2023-06-17T04:05:58.776Z,24.71
2023-06-17T04:06:30.740Z,25.07
2023-06-17T04:07:02.825Z,25.94
2023-06-17T04:07:34.199Z,25.07
2023-06-17T04:07:50.665Z,25.94
2023-06-17T04:08:24.507Z,25.94
2023-06-17T04:08:41.790Z,26.42
2023-06-17T04:09:10.703Z,26.79
2023-06-17T04:09:34.143Z,26.79
2023-06-17T04:10:21.705Z,26.79
2023-06-17T04:10:31.780Z,27.28
2023-06-17T04:11:02.739Z,27.28
2023-06-17T04:11:35.909Z,28.63
2023-06-17T04:12:06.788Z,28.99
2023-06-17T04:12:35.326Z,28.99
2023-06-17T04:12:54.781Z,29.48
2023-06-17T04:13:26.756Z,29.48
2023-06-17T04:14:00.530Z,29.48
2023-06-17T04:14:30.788Z,29.85
2023-06-17T04:15:03.647Z,30.34
2023-06-17T04:15:34.280Z,30.70
2023-06-17T04:15:50.662Z,30.70
2023-06-17T04:16:22.998Z,31.19
2023-06-17T04:16:40.265Z,31.19
2023-06-17T04:17:12.664Z,32.05
2023-06-17T04:17:34.142Z,31.56
2023-06-17T04:17:58.812Z,32.05
2023-06-17T04:18:30.757Z,32.42
2023-06-17T04:19:03.743Z,33.39
2023-06-17T04:19:34.199Z,33.39
2023-06-17T04:19:50.636Z,34.25
2023-06-17T04:20:24.691Z,33.76
2023-06-17T04:20:40.891Z,34.25
2023-06-17T04:21:10.732Z,35.48
2023-06-17T04:21:34.204Z,34.62
2023-06-17T04:21:58.768Z,35.11
2023-06-17T04:22:31.940Z,35.97
2023-06-17T04:23:02.714Z,36.82
2023-06-17T04:23:40.852Z,36.82
2023-06-17T04:23:46.676Z,36.33
2023-06-17T04:24:06.816Z,36.82
2023-06-17T04:24:34.449Z,37.68
2023-06-17T04:24:58.184Z,37.19
2023-06-17T04:25:26.691Z,38.53
2023-06-17T04:26:00.665Z,39.02
2023-06-17T04:26:31.719Z,38.53
2023-06-17T04:27:04.680Z,38.53
2023-06-17T04:27:34.245Z,39.39
2023-06-17T04:27:50.657Z,40.24
2023-06-17T04:28:22.791Z,39.39
2023-06-17T04:28:39.967Z,39.88
2023-06-17T04:29:11.665Z,40.24
2023-06-17T04:29:34.333Z,39.39
2023-06-17T04:29:58.744Z,40.73
2023-06-17T04:30:30.787Z,41.59
2023-06-17T04:31:02.774Z,41.96
2023-06-17T04:31:34.156Z,42.45
2023-06-17T04:31:50.724Z,41.96
2023-06-17T04:32:25.070Z,42.45
2023-06-17T04:33:03.275Z,42.45
2023-06-17T04:33:12.790Z,42.45
2023-06-17T04:33:34.232Z,43.31
2023-06-17T04:33:58.741Z,42.94
2023-06-17T04:34:32.627Z,43.31
2023-06-17T04:35:02.734Z,44.16
2023-06-17T04:35:35.596Z,44.16
2023-06-17T04:36:06.748Z,44.65
2023-06-17T04:36:34.166Z,45.51
2023-06-17T04:36:54.926Z,45.51
2023-06-17T04:37:26.639Z,45.51
2023-06-17T04:37:59.753Z,46.36
2023-06-17T04:38:30.692Z,46.36
2023-06-17T04:39:03.683Z,46.36
2023-06-17T04:39:34.188Z,47.22
2023-06-17T04:39:50.980Z,48.07
2023-06-17T04:40:23.367Z,48.07
2023-06-17T04:40:40.020Z,48.56
2023-06-17T04:41:18.156Z,48.56
2023-06-17T04:41:27.768Z,48.07
2023-06-17T04:41:58.715Z,48.93
2023-06-17T04:42:32.461Z,48.93
2023-06-17T04:43:02.708Z,49.79
2023-06-17T04:43:35.065Z,49.79
2023-06-17T04:44:06.786Z,50.28
2023-06-17T04:44:34.156Z,50.28
2023-06-17T04:44:54.705Z,50.65
2023-06-17T04:45:27.025Z,51.14
2023-06-17T04:45:59.588Z,51.50
2023-06-17T04:46:30.727Z,51.99
2023-06-17T04:47:03.549Z,51.99
2023-06-17T04:47:35.991Z,52.48
2023-06-17T04:47:50.783Z,52.85
2023-06-17T04:48:22.695Z,52.85
2023-06-17T04:48:39.913Z,53.34
2023-06-17T04:49:11.682Z,52.85
2023-06-17T04:49:34.343Z,52.85
2023-06-17T04:49:58.739Z,53.70
2023-06-17T04:50:30.693Z,52.48
2023-06-17T04:51:02.686Z,52.48
2023-06-17T04:51:34.191Z,52.85
2023-06-17T04:51:50.698Z,52.48
2023-06-17T04:52:23.575Z,52.85
2023-06-17T04:52:41.062Z,52.48
2023-06-17T04:53:10.683Z,52.48
2023-06-17T04:53:34.765Z,52.48
2023-06-17T04:53:58.716Z,52.48
2023-06-17T04:54:31.539Z,53.34
2023-06-17T04:55:02.755Z,54.19
2023-06-17T04:55:35.058Z,54.56
2023-06-17T04:56:06.693Z,53.34
2023-06-17T04:56:34.264Z,54.19
2023-06-17T04:56:54.740Z,53.70
2023-06-17T04:57:26.624Z,54.19
2023-06-17T04:57:59.637Z,54.56
2023-06-17T04:58:30.641Z,54.19
2023-06-17T04:59:03.727Z,54.56
2023-06-17T04:59:36.183Z,54.56
2023-06-17T05:00:07.635Z,55.05
2023-06-17T05:00:34.148Z,55.05
2023-06-17T05:00:54.723Z,54.56
2023-06-17T05:01:26.736Z,55.90
2023-06-17T05:01:58.721Z,56.27
2023-06-17T05:02:30.677Z,56.27
2023-06-17T05:03:02.766Z,56.76
2023-06-17T05:03:34.397Z,57.62
2023-06-17T05:03:50.675Z,56.76
2023-06-17T05:04:24.749Z,57.25
2023-06-17T05:04:41.922Z,57.25
2023-06-17T05:05:10.703Z,57.62
2023-06-17T05:05:34.220Z,57.62
2023-06-17T05:05:58.686Z,58.11
2023-06-17T05:06:31.607Z,58.48
2023-06-17T05:07:02.650Z,60.19
2023-06-17T05:07:35.115Z,60.19
2023-06-17T05:08:13.278Z,60.19
2023-06-17T05:08:22.603Z,63.24
2023-06-17T05:08:40.807Z,64.10
2023-06-17T05:09:10.618Z,64.96
2023-06-17T05:09:34.141Z,64.59
2023-06-17T05:09:58.673Z,65.45
2023-06-17T05:10:30.675Z,64.96
2023-06-17T05:11:03.647Z,65.94
2023-06-17T05:11:34.132Z,64.96
2023-06-17T05:11:50.677Z,65.45
2023-06-17T05:12:24.282Z,64.10
2023-06-17T05:12:40.923Z,64.10
2023-06-17T05:13:10.708Z,62.02
2023-06-17T05:13:35.036Z,62.02
2023-06-17T05:13:58.719Z,61.17
2023-06-17T05:14:30.796Z,61.17
2023-06-17T05:15:02.697Z,61.17
2023-06-17T05:15:34.189Z,62.02
2023-06-17T05:15:51.596Z,61.17
2023-06-17T05:16:22.761Z,62.88
2023-06-17T05:16:40.043Z,62.39
2023-06-17T05:17:10.634Z,62.88
2023-06-17T05:17:34.600Z,62.39
2023-06-17T05:17:59.574Z,62.39
2023-06-17T05:18:30.683Z,62.88
2023-06-17T05:19:03.706Z,62.88
2023-06-17T05:19:34.112Z,63.73
2023-06-17T05:19:50.690Z,63.24
2023-06-17T05:20:22.821Z,63.73
2023-06-17T05:20:40.089Z,64.59
2023-06-17T05:21:11.440Z,64.10
2023-06-17T05:21:34.187Z,63.73
2023-06-17T05:21:58.650Z,63.73
2023-06-17T05:22:30.651Z,65.45
2023-06-17T05:23:02.856Z,64.59
2023-06-17T05:23:34.467Z,64.96
2023-06-17T05:23:50.778Z,65.45
2023-06-17T05:24:22.715Z,65.94
2023-06-17T05:24:40.866Z,65.94
2023-06-17T05:25:10.623Z,66.31
2023-06-17T05:25:34.333Z,66.80
2023-06-17T05:25:58.634Z,66.31
2023-06-17T05:26:30.621Z,67.65
2023-06-17T05:27:03.674Z,66.80
2023-06-17T05:27:34.183Z,67.16
2023-06-17T05:27:50.724Z,66.31
2023-06-17T05:28:22.621Z,68.02
2023-06-17T05:28:39.906Z,68.51
2023-06-17T05:29:11.718Z,67.65
2023-06-17T05:29:34.137Z,68.02
2023-06-17T05:29:58.726Z,68.02
2023-06-17T05:30:30.708Z,69.36
2023-06-17T05:31:02.668Z,70.22
2023-06-17T05:31:34.144Z,70.71
2023-06-17T05:31:50.628Z,73.65
2023-06-17T05:32:23.533Z,76.34
2023-06-17T05:32:41.988Z,77.56
2023-06-17T05:33:10.723Z,82.82
2023-06-17T05:33:34.115Z,85.02
2023-06-17T05:33:58.594Z,89.79
2023-06-17T05:34:32.585Z,97.50
2023-06-17T05:35:02.625Z,103.61
2023-06-17T05:35:36.264Z,105.82
2023-06-17T05:36:06.668Z,110.59
2023-06-17T05:36:34.124Z,110.96
2023-06-17T05:36:54.588Z,113.16
2023-06-17T05:37:26.639Z,116.22
2023-06-17T05:38:00.563Z,116.58
2023-06-17T05:38:30.675Z,118.42
2023-06-17T05:39:03.715Z,122.70
2023-06-17T05:39:34.242Z,124.41
2023-06-17T05:39:50.742Z,127.96
2023-06-17T05:40:22.972Z,131.39
2023-06-17T05:40:39.922Z,132.24
2023-06-17T05:41:10.666Z,134.44
2023-06-17T05:41:34.472Z,134.44
2023-06-17T05:41:58.718Z,135.30
2023-06-17T05:42:31.551Z,135.67
2023-06-17T05:43:02.705Z,136.65
2023-06-17T05:43:35.104Z,137.02
2023-06-17T05:44:06.761Z,138.36
2023-06-17T05:44:34.223Z,139.22
2023-06-17T05:44:54.664Z,139.58
2023-06-17T05:45:26.897Z,141.78
2023-06-17T05:45:59.629Z,143.13
2023-06-17T05:46:31.116Z,143.13
2023-06-17T05:47:03.588Z,143.13
2023-06-17T05:47:34.221Z,143.99
2023-06-17T05:47:50.755Z,144.85
2023-06-17T05:48:24.661Z,146.19
2023-06-17T05:48:39.977Z,147.41
2023-06-17T05:49:11.722Z,148.76
2023-06-17T05:49:34.491Z,149.61
2023-06-17T05:49:58.690Z,150.47
2023-06-17T05:50:30.706Z,151.82
2023-06-17T05:51:02.661Z,151.82
2023-06-17T05:51:34.531Z,152.19
2023-06-17T05:52:06.707Z,153.53
2023-06-17T05:52:34.243Z,153.04
2023-06-17T05:52:54.673Z,154.75
2023-06-17T05:53:27.581Z,155.73
2023-06-17T05:53:58.713Z,157.44
2023-06-17T05:54:32.494Z,159.53
2023-06-17T05:55:02.670Z,160.02
2023-06-17T05:55:35.156Z,160.02
2023-06-17T05:56:06.694Z,160.51
2023-06-17T05:56:34.191Z,160.51
2023-06-17T05:56:54.725Z,160.51
2023-06-17T05:57:26.712Z,160.87
2023-06-17T05:57:59.680Z,161.73
2023-06-17T05:58:30.654Z,163.07
2023-06-17T05:59:03.674Z,162.22
2023-06-17T05:59:34.243Z,162.22
2023-06-17T05:59:50.671Z,160.51
2023-06-17T06:00:22.862Z,158.67
2023-06-17T06:00:40.245Z,158.67
2023-06-17T06:01:11.626Z,159.16
2023-06-17T06:01:34.263Z,158.67
2023-06-17T06:01:58.829Z,161.73
2023-06-17T06:02:30.694Z,165.64
2023-06-17T06:03:02.737Z,170.05
2023-06-17T06:03:34.226Z,172.12
2023-06-17T06:03:50.769Z,175.19
2023-06-17T06:04:23.555Z,176.90
2023-06-17T06:04:40.819Z,176.90